createdAt,value
2018-06-08T00:00:49.803Z,15.0
2018-06-08T00:02:49.995Z,15.0
2018-06-08T00:04:50.475Z,16.0
2018-06-08T00:06:49.762Z,16.0
2018-06-08T00:08:50.064Z,15.4
2018-06-08T00:10:50.233Z,15.1
2018-06-08T00:12:50.404Z,15.3
2018-06-08T00:14:49.581Z,15.2
2018-06-08T00:16:49.773Z,15.6
2018-06-08T00:18:49.948Z,15.2
2018-06-08T00:20:50.142Z,15.2
2018-06-08T00:22:50.289Z,15.4
2018-06-08T00:24:50.417Z,15.3
2018-06-08T00:26:49.625Z,15.2
2018-06-08T00:28:49.724Z,16.0
2018-06-08T00:30:49.905Z,16.0
2018-06-08T00:32:50.063Z,16.3
2018-06-08T00:34:50.483Z,16.1
2018-06-08T00:36:49.783Z,16.3
2018-06-08T00:38:49.883Z,16.3
2018-06-08T00:40:50.025Z,17.2
2018-06-08T00:42:50.153Z,16.5
2018-06-08T00:44:50.318Z,16.6
2018-06-08T00:46:49.599Z,17.8
2018-06-08T00:48:49.679Z,17.8
2018-06-08T00:50:49.859Z,17.3
2018-06-08T00:52:49.997Z,17.2
2018-06-08T00:54:50.128Z,18.3
2018-06-08T00:56:50.407Z,18.3
2018-06-08T00:58:50.346Z,19.4
2018-06-08T01:00:50.516Z,20.1
2018-06-08T01:02:49.715Z,20.7
2018-06-08T01:04:50.085Z,20.7
2018-06-08T01:06:50.402Z,20.9
2018-06-08T01:08:49.545Z,20.9
2018-06-08T01:10:49.773Z,21.0
2018-06-08T01:12:49.915Z,21.1
2018-06-08T01:14:50.100Z,21.2
2018-06-08T01:16:50.377Z,21.9
2018-06-08T01:18:49.588Z,21.9
2018-06-08T01:20:49.724Z,21.6
2018-06-08T01:22:50.014Z,22.7
2018-06-08T01:24:50.208Z,21.8
2018-06-08T01:26:50.459Z,21.8
2018-06-08T01:28:49.639Z,23.6
2018-06-08T01:30:49.730Z,23.6
2018-06-08T01:32:49.906Z,23.6
2018-06-08T01:34:50.305Z,22.3
2018-06-08T01:36:49.605Z,22.3
2018-06-08T01:38:49.745Z,23.2
2018-06-08T01:40:49.896Z,21.5
2018-06-08T01:42:50.090Z,22.8
2018-06-08T01:44:50.398Z,22.8
2018-06-08T01:46:49.752Z,21.7
2018-06-08T01:48:49.933Z,22.8
2018-06-08T01:50:50.118Z,22.0
2018-06-08T01:52:50.221Z,20.7
2018-06-08T01:54:50.395Z,20.7
2018-06-08T01:56:49.675Z,22.3
2018-06-08T01:58:49.854Z,20.7
2018-06-08T02:00:50.070Z,20.1
2018-06-08T02:02:50.429Z,20.5
2018-06-08T02:04:49.748Z,21.7
2018-06-08T02:06:50.012Z,21.7
2018-06-08T02:08:49.786Z,21.5
2018-06-08T02:10:49.911Z,22.1
2018-06-08T02:12:50.121Z,22.1
2018-06-08T02:14:50.256Z,22.4
2018-06-08T02:16:49.628Z,20.7
2018-06-08T02:18:49.829Z,21.0
2018-06-08T02:20:49.942Z,21.8
2018-06-08T02:22:50.126Z,21.8
2018-06-08T02:24:50.311Z,23.1
2018-06-08T02:26:49.551Z,20.8
2018-06-08T02:28:49.707Z,22.4
2018-06-08T02:30:49.921Z,21.2
2018-06-08T02:32:50.067Z,22.1
2018-06-08T02:34:49.638Z,22.1
2018-06-08T02:36:49.974Z,21.6
2018-06-08T02:38:50.150Z,22.8
2018-06-08T02:40:50.301Z,22.6
2018-06-08T02:42:50.507Z,22.4
2018-06-08T02:44:49.614Z,22.4
2018-06-08T02:46:49.912Z,22.5
2018-06-08T02:48:50.146Z,22.5
2018-06-08T02:50:50.412Z,21.4
2018-06-08T02:52:49.615Z,21.9
2018-06-08T02:54:49.801Z,21.9
2018-06-08T02:56:50.113Z,22.0
2018-06-08T02:58:50.364Z,23.2
2018-06-08T03:00:49.586Z,23.2
2018-06-08T03:02:49.764Z,22.9
2018-06-08T03:04:50.073Z,20.9
2018-06-08T03:06:50.392Z,20.8
2018-06-08T03:08:49.587Z,21.1
2018-06-08T03:10:49.755Z,23.8
2018-06-08T03:12:50.025Z,23.8
2018-06-08T03:14:50.211Z,23.1
2018-06-08T03:16:50.512Z,23.5
2018-06-08T03:18:49.631Z,22.9
2018-06-08T03:20:49.753Z,22.4
2018-06-08T03:22:49.896Z,22.4
2018-06-08T03:24:50.101Z,22.3
2018-06-08T03:26:50.499Z,22.3
2018-06-08T03:28:49.722Z,22.3
2018-06-08T03:30:49.982Z,23.3
2018-06-08T03:32:50.131Z,23.3
2018-06-08T03:34:49.721Z,23.1
2018-06-08T03:36:49.944Z,24.0
2018-06-08T03:38:50.088Z,23.5
2018-06-08T03:40:50.309Z,23.5
2018-06-08T03:42:50.494Z,24.1
2018-06-08T03:44:49.661Z,23.6
2018-06-08T03:46:49.976Z,23.5
2018-06-08T03:48:50.295Z,24.9
2018-06-08T03:50:50.395Z,24.9
2018-06-08T03:52:49.647Z,23.0
2018-06-08T03:54:49.775Z,23.9
2018-06-08T03:56:50.052Z,22.6
2018-06-08T03:58:50.164Z,22.6
2018-06-08T04:00:50.346Z,22.6
2018-06-08T04:02:50.467Z,22.7
2018-06-08T04:04:49.991Z,22.2
2018-06-08T04:06:50.380Z,22.3
2018-06-08T04:08:50.509Z,22.3
2018-06-08T04:10:49.660Z,22.7
2018-06-08T04:12:49.841Z,22.4
2018-06-08T04:14:49.978Z,21.5
2018-06-08T04:16:50.286Z,20.4
2018-06-08T04:18:50.432Z,21.5
2018-06-08T04:20:49.599Z,21.5
2018-06-08T04:22:49.722Z,19.8
2018-06-08T04:24:49.888Z,19.2
2018-06-08T04:26:49.794Z,19.2
2018-06-08T04:28:49.927Z,17.1
2018-06-08T04:30:50.078Z,17.1
2018-06-08T04:32:50.399Z,17.4
2018-06-08T04:34:50.462Z,16.3
2018-06-08T04:36:49.654Z,16.2
2018-06-08T04:38:49.782Z,16.2
2018-06-08T04:40:49.926Z,15.1
2018-06-08T04:42:50.059Z,16.0
2018-06-08T04:44:50.185Z,15.7
2018-06-08T04:46:50.396Z,16.3
2018-06-08T04:48:49.584Z,15.3
2018-06-08T04:50:49.697Z,15.3
2018-06-08T04:52:49.856Z,15.3
2018-06-08T04:54:50.088Z,15.6
2018-06-08T04:56:50.430Z,15.2
2018-06-08T04:58:49.543Z,15.2
2018-06-08T05:00:49.714Z,16.0
2018-06-08T05:02:49.865Z,15.6
2018-06-08T05:04:50.230Z,16.3
2018-06-08T05:06:49.797Z,16.6
2018-06-08T05:08:49.937Z,16.6
2018-06-08T05:10:50.056Z,16.3
2018-06-08T05:12:50.249Z,16.6
2018-06-08T05:14:50.366Z,16.9
2018-06-08T05:16:49.573Z,16.9
2018-06-08T05:18:49.713Z,17.5
2018-06-08T05:20:49.887Z,17.4
2018-06-08T05:22:50.090Z,17.6
2018-06-08T05:24:50.309Z,17.7
2018-06-08T05:26:49.595Z,17.7
2018-06-08T05:28:49.772Z,18.7
2018-06-08T05:30:49.940Z,18.8
2018-06-08T05:32:50.104Z,18.8
2018-06-08T05:34:50.362Z,18.3
2018-06-08T05:36:50.305Z,18.8
2018-06-08T05:38:50.448Z,17.2
2018-06-08T05:40:49.616Z,17.9
2018-06-08T05:42:49.740Z,17.4
2018-06-08T05:44:49.980Z,17.0
2018-06-08T05:46:50.261Z,17.0
2018-06-08T05:48:50.499Z,16.9
2018-06-08T05:50:49.606Z,15.6
2018-06-08T05:52:49.788Z,15.6
2018-06-08T05:54:49.937Z,15.3
2018-06-08T05:56:50.371Z,15.1
2018-06-08T05:58:50.493Z,15.7
2018-06-08T06:00:49.633Z,16.2
2018-06-08T06:02:49.817Z,16.2
2018-06-08T06:04:50.172Z,16.2
2018-06-08T06:06:50.441Z,16.2
2018-06-08T06:08:49.593Z,16.0
2018-06-08T06:10:49.762Z,15.0
2018-06-08T06:12:49.913Z,13.5
2018-06-08T06:14:50.108Z,13.4
2018-06-08T06:16:49.616Z,13.4
2018-06-08T06:18:49.763Z,13.4
2018-06-08T06:20:49.939Z,13.5
2018-06-08T06:22:50.302Z,13.1
2018-06-08T06:24:49.534Z,14.3
2018-06-08T06:26:49.840Z,14.3
2018-06-08T06:28:49.999Z,13.1
2018-06-08T06:30:50.178Z,12.2
2018-06-08T06:32:50.362Z,12.3
2018-06-08T06:34:49.824Z,12.3
2018-06-08T06:36:50.046Z,13.4
2018-06-08T06:38:50.190Z,12.7
2018-06-08T06:40:50.321Z,12.9
2018-06-08T06:42:50.471Z,12.0
2018-06-08T06:44:49.690Z,12.0
2018-06-08T06:46:50.237Z,12.8
2018-06-08T06:48:50.382Z,13.2
2018-06-08T06:50:50.509Z,13.5
2018-06-08T06:52:49.702Z,13.5
2018-06-08T06:54:49.877Z,13.0
2018-06-08T06:56:50.046Z,12.4
2018-06-08T06:58:50.456Z,12.4
2018-06-08T07:00:49.718Z,13.4
2018-06-08T07:02:49.817Z,13.4
2018-06-08T07:04:50.199Z,13.2
2018-06-08T07:06:50.431Z,12.5
2018-06-08T07:08:49.574Z,12.3
2018-06-08T07:10:49.760Z,12.3
2018-06-08T07:12:50.192Z,13.0
2018-06-08T07:14:49.826Z,13.0
2018-06-08T07:16:50.066Z,13.5
2018-06-08T07:18:50.232Z,13.0
2018-06-08T07:20:49.524Z,14.0
2018-06-08T07:22:49.704Z,13.5
2018-06-08T07:24:49.942Z,13.5
2018-06-08T07:26:49.784Z,12.9
2018-06-08T07:28:49.940Z,13.6
2018-06-08T07:30:50.116Z,13.6
2018-06-08T07:32:50.247Z,13.3
2018-06-08T07:34:49.815Z,13.4
2018-06-08T07:36:50.148Z,12.9
2018-06-08T07:38:50.300Z,13.5
2018-06-08T07:40:50.427Z,13.6
2018-06-08T07:42:49.592Z,13.6
2018-06-08T07:44:49.723Z,13.4
2018-06-08T07:46:50.162Z,14.8
2018-06-08T07:48:49.784Z,14.5
2018-06-08T07:50:49.913Z,14.7
2018-06-08T07:52:49.991Z,14.7
2018-06-08T07:54:50.177Z,13.9
2018-06-08T07:56:50.509Z,14.1
2018-06-08T07:58:49.631Z,15.6
2018-06-08T08:00:49.784Z,14.7
2018-06-08T08:02:49.926Z,14.7
2018-06-08T08:04:50.387Z,14.7
2018-06-08T08:06:49.589Z,14.2
2018-06-08T08:08:49.720Z,14.9
2018-06-08T08:10:49.859Z,14.9
2018-06-08T08:12:50.020Z,14.5
2018-06-08T08:14:50.154Z,14.0
2018-06-08T08:16:49.556Z,14.0
2018-06-08T08:18:49.669Z,14.0
2018-06-08T08:20:49.778Z,14.8
2018-06-08T08:22:49.976Z,14.6
2018-06-08T08:24:50.146Z,13.9
2018-06-08T08:26:50.359Z,13.9
2018-06-08T08:28:50.474Z,14.3
2018-06-08T08:30:49.599Z,14.3
2018-06-08T08:32:49.751Z,13.5
2018-06-08T08:34:50.183Z,14.2
2018-06-08T08:36:50.498Z,14.1
2018-06-08T08:38:49.570Z,13.9
2018-06-08T08:40:49.709Z,13.9
2018-06-08T08:42:49.865Z,14.1
2018-06-08T08:44:50.029Z,13.8
2018-06-08T08:46:50.348Z,13.4
2018-06-08T08:48:50.485Z,14.0
2018-06-08T08:50:49.588Z,14.0
2018-06-08T08:52:49.720Z,13.9
2018-06-08T08:54:49.819Z,13.1
2018-06-08T08:56:50.384Z,13.7
2018-06-08T08:58:50.240Z,13.7
2018-06-08T09:00:50.391Z,13.6
2018-06-08T09:02:50.570Z,12.7
2018-06-08T09:04:49.856Z,15.1
2018-06-08T09:06:50.113Z,13.1
2018-06-08T09:08:50.265Z,13.1
2018-06-08T09:10:50.394Z,14.2
2018-06-08T09:12:49.567Z,12.6
2018-06-08T09:14:49.835Z,12.0
2018-06-08T09:16:50.106Z,11.9
2018-06-08T09:18:50.264Z,11.9
2018-06-08T09:20:50.444Z,12.8
2018-06-08T09:22:49.663Z,11.3
2018-06-08T09:24:49.792Z,11.3
2018-06-08T09:26:50.065Z,11.4
2018-06-08T09:28:50.211Z,11.4
2018-06-08T09:30:50.390Z,10.2
2018-06-08T09:32:49.567Z,10.2
2018-06-08T09:34:49.986Z,9.5
2018-06-08T09:36:50.236Z,9.7
2018-06-08T09:38:50.399Z,9.7
2018-06-08T09:40:49.599Z,9.9
2018-06-08T09:42:49.831Z,10.2
2018-06-08T09:44:49.970Z,10.2
2018-06-08T09:46:50.367Z,10.2
2018-06-08T09:48:49.587Z,10.4
2018-06-08T09:50:49.703Z,10.4
2018-06-08T09:52:49.892Z,12.5
2018-06-08T09:54:50.183Z,11.6
2018-06-08T09:56:49.941Z,11.0
2018-06-08T09:58:50.140Z,11.0
2018-06-08T10:00:50.318Z,11.8
2018-06-08T10:02:50.429Z,11.2
2018-06-08T10:04:49.794Z,12.4
2018-06-08T10:06:50.017Z,12.4
2018-06-08T10:08:50.181Z,11.2
2018-06-08T10:10:50.325Z,11.8
2018-06-08T10:12:50.463Z,11.8
2018-06-08T10:14:49.609Z,10.9
2018-06-08T10:16:49.842Z,10.9
2018-06-08T10:18:49.966Z,10.4
2018-06-08T10:20:50.082Z,10.1
2018-06-08T10:22:50.204Z,10.6
2018-06-08T10:24:50.338Z,10.6
2018-06-08T10:26:50.358Z,11.1
2018-06-08T10:28:50.481Z,11.1
2018-06-08T10:30:49.674Z,10.8
2018-06-08T10:32:49.846Z,10.8
2018-06-08T10:34:50.303Z,9.9
2018-06-08T10:36:49.733Z,9.9
2018-06-08T10:38:49.858Z,9.7
2018-06-08T10:40:50.040Z,8.8
2018-06-08T10:42:50.204Z,8.8
2018-06-08T10:44:50.292Z,8.8
2018-06-08T10:46:49.585Z,8.8
2018-06-08T10:48:49.798Z,7.9
2018-06-08T10:50:50.031Z,7.0
2018-06-08T10:52:50.272Z,6.6
2018-06-08T10:54:50.438Z,6.6
2018-06-08T10:56:49.864Z,6.8
2018-06-08T10:58:50.047Z,6.5
2018-06-08T11:00:50.168Z,5.7
2018-06-08T11:02:50.485Z,5.2
2018-06-08T11:04:49.800Z,5.2
2018-06-08T11:06:50.087Z,5.7
2018-06-08T11:08:50.179Z,5.7
2018-06-08T11:10:50.388Z,5.1
2018-06-08T11:12:49.704Z,5.8
2018-06-08T11:14:49.865Z,5.8
2018-06-08T11:16:50.131Z,5.7
2018-06-08T11:18:50.316Z,5.5
2018-06-08T11:20:50.460Z,5.2
2018-06-08T11:22:49.592Z,5.3
2018-06-08T11:24:49.736Z,5.3
2018-06-08T11:26:50.171Z,5.5
2018-06-08T11:28:50.433Z,5.5
2018-06-08T11:30:49.572Z,5.6
2018-06-08T11:32:49.694Z,5.6
2018-06-08T11:34:50.163Z,5.5
2018-06-08T11:36:50.460Z,5.7
2018-06-08T11:38:49.726Z,5.9
2018-06-08T11:40:49.928Z,5.5
2018-06-08T11:42:50.048Z,5.5
2018-06-08T11:44:50.199Z,5.9
2018-06-08T11:46:50.422Z,5.4
2018-06-08T11:48:49.561Z,5.4
2018-06-08T11:50:49.737Z,5.2
2018-06-08T11:52:49.890Z,5.2
2018-06-08T11:54:49.999Z,5.4
2018-06-08T11:56:50.191Z,5.2
2018-06-08T11:58:50.448Z,4.7
2018-06-08T12:00:49.559Z,4.6
2018-06-08T12:02:49.778Z,4.6
2018-06-08T12:04:50.183Z,5.0
2018-06-08T12:06:50.406Z,4.7
2018-06-08T12:08:49.546Z,5.1
2018-06-08T12:10:49.678Z,5.0
2018-06-08T12:12:49.852Z,5.0
2018-06-08T12:14:49.961Z,5.1
2018-06-08T12:16:50.327Z,5.0
2018-06-08T12:18:49.552Z,5.2
2018-06-08T12:20:49.671Z,5.0
2018-06-08T12:22:49.872Z,5.0
2018-06-08T12:24:50.032Z,4.9
2018-06-08T12:26:50.295Z,5.4
2018-06-08T12:28:49.568Z,5.3
2018-06-08T12:30:49.879Z,5.3
2018-06-08T12:32:49.688Z,5.4
2018-06-08T12:34:50.119Z,5.5
2018-06-08T12:36:50.389Z,5.8
2018-06-08T12:38:50.488Z,5.8
2018-06-08T12:40:49.788Z,5.8
2018-06-08T12:42:50.065Z,5.7
2018-06-08T12:44:50.172Z,5.4
2018-06-08T12:46:49.589Z,5.6
2018-06-08T12:48:49.809Z,5.7
2018-06-08T12:50:50.065Z,5.7
2018-06-08T12:52:50.291Z,5.6
2018-06-08T12:54:50.471Z,5.6
2018-06-08T12:56:49.935Z,5.5
2018-06-08T12:58:50.337Z,5.5
2018-06-08T13:00:50.522Z,5.5
2018-06-08T13:02:49.697Z,5.6
2018-06-08T13:04:50.089Z,5.9
2018-06-08T13:06:50.337Z,5.9
2018-06-08T13:08:50.493Z,5.6
2018-06-08T13:10:49.731Z,5.6
2018-06-08T13:12:49.907Z,6.1
2018-06-08T13:14:50.028Z,5.8
2018-06-08T13:16:50.367Z,5.6
2018-06-08T13:18:50.525Z,5.6
2018-06-08T13:20:49.747Z,5.8
2018-06-08T13:22:49.932Z,5.9
2018-06-08T13:24:50.114Z,5.6
2018-06-08T13:26:50.413Z,5.6
2018-06-08T13:28:49.591Z,5.6
2018-06-08T13:30:49.778Z,5.8
2018-06-08T13:32:49.889Z,5.3
2018-06-08T13:34:50.335Z,5.2
2018-06-08T13:36:49.589Z,5.5
2018-06-08T13:38:49.778Z,5.5
2018-06-08T13:40:49.904Z,5.8
2018-06-08T13:42:50.061Z,4.9
2018-06-08T13:44:50.281Z,4.6
2018-06-08T13:46:49.528Z,4.3
2018-06-08T13:48:49.532Z,4.3
2018-06-08T13:50:49.751Z,4.1
2018-06-08T13:52:49.910Z,4.6
2018-06-08T13:54:50.034Z,4.4
2018-06-08T13:56:50.327Z,4.4
2018-06-08T13:58:49.571Z,4.5
2018-06-08T14:00:49.714Z,4.8
2018-06-08T14:02:50.009Z,4.6
2018-06-08T14:04:50.350Z,4.3
2018-06-08T14:06:49.670Z,4.3
2018-06-08T14:08:49.897Z,4.4
2018-06-08T14:10:50.044Z,4.6
2018-06-08T14:12:50.310Z,4.5
2018-06-08T14:14:50.439Z,4.3
2018-06-08T14:16:49.749Z,4.3
2018-06-08T14:18:49.915Z,4.3
2018-06-08T14:20:50.186Z,4.6
2018-06-08T14:22:49.780Z,4.5
2018-06-08T14:24:49.938Z,4.5
2018-06-08T14:26:50.192Z,4.5
2018-06-08T14:28:50.338Z,4.6
2018-06-08T14:30:50.484Z,4.5
2018-06-08T14:32:49.725Z,4.5
2018-06-08T14:34:50.136Z,4.7
2018-06-08T14:36:50.402Z,4.7
2018-06-08T14:38:49.556Z,5.1
2018-06-08T14:40:49.727Z,4.8
2018-06-08T14:42:49.960Z,5.1
2018-06-08T14:44:50.167Z,5.1
2018-06-08T14:46:50.427Z,5.3
2018-06-08T14:48:49.569Z,5.1
2018-06-08T14:50:49.722Z,4.9
2018-06-08T14:52:49.819Z,4.8
2018-06-08T14:54:50.012Z,4.8
2018-06-08T14:56:50.304Z,4.8
2018-06-08T14:58:50.472Z,4.8
2018-06-08T15:00:49.890Z,4.8
2018-06-08T15:02:50.093Z,4.7
2018-06-08T15:04:50.453Z,4.7
2018-06-08T15:06:49.721Z,4.7
2018-06-08T15:08:49.854Z,4.6
2018-06-08T15:10:49.999Z,4.8
2018-06-08T15:12:50.161Z,4.5
2018-06-08T15:14:50.366Z,4.5
2018-06-08T15:16:49.712Z,4.6
2018-06-08T15:18:49.897Z,4.5
2018-06-08T15:20:50.048Z,4.2
2018-06-08T15:22:50.172Z,4.8
2018-06-08T15:24:50.304Z,4.8
2018-06-08T15:26:49.630Z,4.4
2018-06-08T15:28:49.828Z,4.4
2018-06-08T15:30:49.969Z,4.6
2018-06-08T15:32:50.131Z,4.6
2018-06-08T15:34:50.457Z,4.2
2018-06-08T15:36:49.743Z,4.5
2018-06-08T15:38:49.901Z,4.4
2018-06-08T15:40:50.147Z,4.6
2018-06-08T15:42:50.233Z,4.6
2018-06-08T15:44:50.372Z,4.7
2018-06-08T15:46:49.643Z,4.6
2018-06-08T15:48:49.810Z,4.4
2018-06-08T15:50:49.982Z,4.3
2018-06-08T15:52:50.146Z,4.8
2018-06-08T15:54:50.268Z,4.8
2018-06-08T15:56:49.559Z,4.5
2018-06-08T15:58:49.721Z,4.1
2018-06-08T16:00:50.001Z,4.2
2018-06-08T16:02:50.494Z,4.2
2018-06-08T16:04:49.872Z,4.1
2018-06-08T16:06:50.222Z,3.8
2018-06-08T16:08:50.412Z,3.8
2018-06-08T16:10:49.587Z,4.2
2018-06-08T16:12:49.732Z,4.2
2018-06-08T16:14:49.911Z,4.4
2018-06-08T16:16:50.242Z,4.3
2018-06-08T16:18:50.438Z,5.5
2018-06-08T16:20:49.615Z,5.4
2018-06-08T16:22:49.750Z,5.4
2018-06-08T16:24:49.972Z,4.9
2018-06-08T16:26:50.354Z,4.9
2018-06-08T16:28:49.624Z,5.4
2018-06-08T16:30:49.782Z,5.4
2018-06-08T16:32:50.194Z,4.4
2018-06-08T16:34:49.553Z,4.3
2018-06-08T16:36:49.928Z,5.0
2018-06-08T16:38:50.098Z,5.0
2018-06-08T16:40:50.255Z,5.3
2018-06-08T16:42:50.431Z,5.3
2018-06-08T16:44:49.600Z,5.3
2018-06-08T16:46:49.849Z,6.6
2018-06-08T16:48:50.010Z,6.6
2018-06-08T16:50:50.168Z,6.3
2018-06-08T16:52:50.363Z,6.6
2018-06-08T16:54:50.525Z,6.7
2018-06-08T16:56:49.814Z,6.9
2018-06-08T16:58:50.005Z,7.1
2018-06-08T17:00:50.176Z,7.1
2018-06-08T17:02:50.409Z,7.3
2018-06-08T17:04:49.873Z,6.8
2018-06-08T17:06:50.116Z,7.7
2018-06-08T17:08:50.266Z,7.6
2018-06-08T17:10:50.414Z,7.6
2018-06-08T17:12:49.600Z,7.9
2018-06-08T17:14:49.737Z,8.5
2018-06-08T17:16:50.060Z,9.5
2018-06-08T17:18:50.336Z,9.4
2018-06-08T17:20:50.250Z,9.4
2018-06-08T17:22:49.728Z,9.9
2018-06-08T17:24:49.907Z,9.7
2018-06-08T17:26:50.157Z,10.5
2018-06-08T17:28:50.445Z,9.8
2018-06-08T17:30:49.613Z,9.8
2018-06-08T17:32:49.764Z,9.9
2018-06-08T17:34:50.279Z,10.4
2018-06-08T17:36:49.558Z,10.5
2018-06-08T17:38:49.723Z,10.5
2018-06-08T17:40:49.907Z,10.4
2018-06-08T17:42:50.068Z,10.5
2018-06-08T17:44:50.213Z,10.7
2018-06-08T17:46:49.646Z,10.7
2018-06-08T17:48:49.859Z,10.7
2018-06-08T17:50:50.045Z,10.8
2018-06-08T17:52:50.228Z,10.9
2018-06-08T17:54:50.328Z,10.9
2018-06-08T17:56:49.631Z,12.1
2018-06-08T17:58:49.771Z,12.1
2018-06-08T18:00:49.946Z,12.2
2018-06-08T18:02:50.097Z,11.0
2018-06-08T18:04:49.638Z,11.2
2018-06-08T18:06:49.930Z,11.5
2018-06-08T18:08:50.146Z,11.5
2018-06-08T18:10:50.278Z,11.9
2018-06-08T18:12:50.433Z,12.2
2018-06-08T18:14:49.614Z,11.7
2018-06-08T18:16:50.282Z,11.2
2018-06-08T18:18:50.434Z,11.2
2018-06-08T18:20:49.600Z,11.4
2018-06-08T18:22:49.734Z,12.1
2018-06-08T18:24:49.956Z,12.1
2018-06-08T18:26:50.437Z,11.9
2018-06-08T18:28:49.791Z,11.9
2018-06-08T18:30:50.082Z,11.1
2018-06-08T18:32:50.295Z,8.4
2018-06-08T18:34:49.677Z,9.9
2018-06-08T18:36:50.071Z,9.9
2018-06-08T18:38:50.306Z,9.5
2018-06-08T18:40:49.577Z,9.5
2018-06-08T18:42:49.770Z,9.9
2018-06-08T18:44:50.013Z,11.4
2018-06-08T18:46:50.399Z,11.4
2018-06-08T18:48:49.629Z,11.2
2018-06-08T18:50:49.835Z,11.7
2018-06-08T18:52:50.070Z,12.1
2018-06-08T18:54:50.319Z,12.1
2018-06-08T18:56:49.682Z,11.8
2018-06-08T18:58:49.864Z,11.9
2018-06-08T19:00:50.237Z,12.5
2018-06-08T19:02:49.592Z,12.5
2018-06-08T19:04:50.124Z,13.6
2018-06-08T19:06:50.470Z,13.7
2018-06-08T19:08:49.738Z,14.1
2018-06-08T19:10:50.073Z,14.4
2018-06-08T19:12:50.401Z,15.2
2018-06-08T19:14:49.639Z,16.4
2018-06-08T19:16:49.999Z,16.4
2018-06-08T19:18:50.320Z,16.8
2018-06-08T19:20:50.506Z,16.5
2018-06-08T19:22:49.847Z,17.2
2018-06-08T19:24:50.089Z,17.3
2018-06-08T19:26:50.482Z,17.3
2018-06-08T19:28:49.673Z,18.3
2018-06-08T19:30:50.077Z,19.3
2018-06-08T19:32:49.687Z,18.3
2018-06-08T19:34:50.248Z,18.3
2018-06-08T19:36:49.631Z,18.5
2018-06-08T19:38:49.931Z,17.8
2018-06-08T19:40:50.093Z,17.8
2018-06-08T19:42:50.274Z,16.9
2018-06-08T19:44:50.447Z,16.9
2018-06-08T19:46:49.745Z,17.3
2018-06-08T19:48:49.909Z,16.3
2018-06-08T19:50:50.128Z,16.3
2018-06-08T19:52:50.383Z,16.9
2018-06-08T19:54:49.513Z,17.4
2018-06-08T19:56:49.814Z,16.6
2018-06-08T19:58:49.994Z,16.6
2018-06-08T20:00:50.196Z,16.6
2018-06-08T20:02:50.387Z,16.4
2018-06-08T20:04:49.901Z,18.9
2018-06-08T20:06:50.346Z,18.0
2018-06-08T20:08:49.640Z,18.1
2018-06-08T20:10:49.839Z,17.2
2018-06-08T20:12:50.237Z,17.2
2018-06-08T20:14:50.515Z,16.9
2018-06-08T20:16:49.944Z,15.7
2018-06-08T20:18:50.104Z,14.3
2018-06-08T20:20:50.272Z,14.6
2018-06-08T20:22:50.517Z,14.6
2018-06-08T20:24:49.729Z,13.9
2018-06-08T20:26:50.159Z,14.1
2018-06-08T20:28:50.457Z,12.8
2018-06-08T20:30:49.680Z,12.8
2018-06-08T20:32:49.961Z,12.8
2018-06-08T20:34:50.378Z,11.8
2018-06-08T20:36:49.753Z,12.7
2018-06-08T20:38:49.999Z,12.6
2018-06-08T20:40:50.261Z,12.6
2018-06-08T20:42:50.506Z,11.6
2018-06-08T20:44:49.680Z,12.3
2018-06-08T20:46:50.146Z,12.4
2018-06-08T20:48:50.338Z,12.5
2018-06-08T20:50:49.546Z,12.5
2018-06-08T20:52:49.890Z,13.1
2018-06-08T20:54:50.110Z,12.1
2018-06-08T20:56:50.474Z,11.9
2018-06-08T20:58:49.737Z,11.9
2018-06-08T21:00:49.926Z,12.5
2018-06-08T21:02:50.149Z,12.1
2018-06-08T21:04:50.522Z,12.5
2018-06-08T21:06:49.916Z,13.2
2018-06-08T21:08:50.114Z,13.2
2018-06-08T21:10:50.274Z,12.0
2018-06-08T21:12:50.463Z,12.0
2018-06-08T21:14:49.707Z,12.0
2018-06-08T21:16:50.019Z,11.4
2018-06-08T21:18:50.247Z,11.4
2018-06-08T21:20:50.402Z,11.3
2018-06-08T21:22:49.619Z,11.2
2018-06-08T21:24:49.788Z,11.3
2018-06-08T21:26:50.050Z,11.3
2018-06-08T21:28:50.150Z,11.9
2018-06-08T21:30:50.321Z,11.9
2018-06-08T21:32:49.534Z,11.8
2018-06-08T21:34:49.989Z,11.9
2018-06-08T21:36:50.343Z,12.2
2018-06-08T21:38:49.623Z,12.8
2018-06-08T21:40:49.934Z,12.8
2018-06-08T21:42:50.290Z,12.6
2018-06-08T21:44:49.554Z,12.5
2018-06-08T21:46:49.779Z,13.2
2018-06-08T21:48:50.028Z,12.6
2018-06-08T21:50:50.270Z,12.6
2018-06-08T21:52:49.617Z,13.8
2018-06-08T21:54:49.900Z,14.6
2018-06-08T21:56:50.256Z,15.2
2018-06-08T21:58:50.516Z,15.2
2018-06-08T22:00:49.780Z,15.7
2018-06-08T22:02:50.031Z,17.5
2018-06-08T22:04:50.430Z,15.0
2018-06-08T22:06:49.841Z,15.6
2018-06-08T22:08:50.022Z,15.6
2018-06-08T22:10:50.233Z,17.2
2018-06-08T22:12:50.427Z,16.7
2018-06-08T22:14:49.758Z,16.6
2018-06-08T22:16:50.137Z,16.6
2018-06-08T22:18:50.407Z,17.5
2018-06-08T22:20:49.765Z,16.6
2018-06-08T22:22:50.156Z,17.4
2018-06-08T22:24:50.383Z,17.7
2018-06-08T22:26:49.826Z,17.7
2018-06-08T22:28:49.990Z,17.9
2018-06-08T22:30:50.287Z,18.9
2018-06-08T22:32:49.649Z,18.9
2018-06-08T22:34:50.110Z,18.7
2018-06-08T22:36:50.486Z,17.0
2018-06-08T22:38:49.765Z,17.9
2018-06-08T22:40:50.026Z,17.6
2018-06-08T22:42:50.352Z,17.6
2018-06-08T22:44:49.607Z,17.1
2018-06-08T22:46:49.970Z,17.1
2018-06-08T22:48:50.156Z,16.8
2018-06-08T22:50:49.556Z,17.4
2018-06-08T22:52:49.724Z,17.6
2018-06-08T22:54:49.946Z,19.2
2018-06-08T22:56:50.234Z,19.2
2018-06-08T22:58:50.484Z,19.2
2018-06-08T23:00:49.818Z,18.8
2018-06-08T23:02:50.324Z,18.6
2018-06-08T23:04:49.637Z,18.7
2018-06-08T23:06:50.014Z,18.7
2018-06-08T23:08:50.218Z,19.1
2018-06-08T23:10:50.412Z,20.0
2018-06-08T23:12:49.596Z,20.2
2018-06-08T23:14:49.756Z,21.0
2018-06-08T23:16:50.074Z,21.0
2018-06-08T23:18:50.381Z,18.0
2018-06-08T23:20:49.621Z,18.9
2018-06-08T23:22:49.762Z,18.1
2018-06-08T23:24:49.974Z,18.8
2018-06-08T23:26:50.382Z,18.8
2018-06-08T23:28:49.708Z,16.9
2018-06-08T23:30:49.955Z,18.6
2018-06-08T23:32:50.244Z,17.7
2018-06-08T23:34:49.685Z,17.7
2018-06-08T23:36:50.015Z,17.7
2018-06-08T23:38:50.237Z,17.2
2018-06-08T23:40:50.498Z,19.8
2018-06-08T23:42:49.717Z,19.6
2018-06-08T23:44:49.921Z,19.6
2018-06-08T23:46:50.372Z,18.6
2018-06-08T23:48:49.632Z,19.1
2018-06-08T23:50:49.816Z,19.1
2018-06-08T23:52:50.112Z,19.3
2018-06-08T23:54:50.342Z,19.3
2018-06-08T23:56:49.785Z,19.5
2018-06-08T23:58:50.026Z,19.2
